sensor_id;sensor_type;location;lat;lon;timestamp;P1;durP1;ratioP1;P2;durP2;ratioP2
69623;SDS011;56843;52.020;5.670;2023-07-22T00:00:30;7.97;;;2.63;;
69623;SDS011;56843;52.020;5.670;2023-07-22T00:02:01;9.50;;;2.77;;
69623;SDS011;56843;52.020;5.670;2023-07-22T00:03:31;7.53;;;2.50;;
69623;SDS011;56843;52.020;5.670;2023-07-22T00:05:02;8.48;;;2.92;;
69623;SDS011;56843;52.020;5.670;2023-07-22T00:06:34;7.53;;;2.42;;
69623;SDS011;56843;52.020;5.670;2023-07-22T00:08:04;7.47;;;3.00;;
69623;SDS011;56843;52.020;5.670;2023-07-22T00:09:35;6.80;;;2.50;;
69623;SDS011;56843;52.020;5.670;2023-07-22T00:11:05;10.00;;;2.72;;
69623;SDS011;56843;52.020;5.670;2023-07-22T00:12:36;7.60;;;2.72;;
69623;SDS011;56843;52.020;5.670;2023-07-22T00:14:07;7.03;;;2.57;;
69623;SDS011;56843;52.020;5.670;2023-07-22T00:15:39;6.95;;;2.60;;
69623;SDS011;56843;52.020;5.670;2023-07-22T00:17:09;7.73;;;2.67;;
69623;SDS011;56843;52.020;5.670;2023-07-22T00:18:40;8.87;;;3.00;;
69623;SDS011;56843;52.020;5.670;2023-07-22T00:20:11;6.53;;;2.58;;
69623;SDS011;56843;52.020;5.670;2023-07-22T00:21:42;8.07;;;3.00;;
69623;SDS011;56843;52.020;5.670;2023-07-22T00:23:12;6.87;;;2.87;;
69623;SDS011;56843;52.020;5.670;2023-07-22T00:24:45;7.82;;;2.53;;
69623;SDS011;56843;52.020;5.670;2023-07-22T00:26:15;8.43;;;2.78;;
69623;SDS011;56843;52.020;5.670;2023-07-22T00:27:46;7.17;;;2.60;;
69623;SDS011;56843;52.020;5.670;2023-07-22T00:29:16;9.93;;;2.70;;
69623;SDS011;56843;52.020;5.670;2023-07-22T00:30:47;7.20;;;2.40;;
69623;SDS011;56843;52.020;5.670;2023-07-22T00:32:19;7.82;;;2.78;;
69623;SDS011;56843;52.020;5.670;2023-07-22T00:33:49;7.65;;;2.67;;
69623;SDS011;56843;52.020;5.670;2023-07-22T00:35:20;9.27;;;2.75;;
69623;SDS011;56843;52.020;5.670;2023-07-22T00:36:51;6.78;;;2.38;;
69623;SDS011;56843;52.020;5.670;2023-07-22T00:38:22;7.90;;;2.50;;
69623;SDS011;56843;52.020;5.670;2023-07-22T00:39:52;9.38;;;2.60;;
69623;SDS011;56843;52.020;5.670;2023-07-22T00:41:24;7.90;;;3.05;;
69623;SDS011;56843;52.020;5.670;2023-07-22T00:42:54;8.20;;;2.80;;
69623;SDS011;56843;52.020;5.670;2023-07-22T00:44:25;8.47;;;2.97;;
69623;SDS011;56843;52.020;5.670;2023-07-22T00:45:56;6.95;;;2.45;;
69623;SDS011;56843;52.020;5.670;2023-07-22T00:47:26;9.93;;;2.63;;
69623;SDS011;56843;52.020;5.670;2023-07-22T00:48:57;7.63;;;2.97;;
69623;SDS011;56843;52.020;5.670;2023-07-22T00:50:28;10.68;;;3.25;;
69623;SDS011;56843;52.020;5.670;2023-07-22T00:51:59;11.50;;;3.13;;
69623;SDS011;56843;52.020;5.670;2023-07-22T00:53:34;6.72;;;2.38;;
69623;SDS011;56843;52.020;5.670;2023-07-22T00:55:06;8.88;;;3.00;;
69623;SDS011;56843;52.020;5.670;2023-07-22T00:56:37;10.57;;;2.65;;
69623;SDS011;56843;52.020;5.670;2023-07-22T00:58:09;7.05;;;2.45;;
69623;SDS011;56843;52.020;5.670;2023-07-22T00:59:40;7.00;;;2.70;;
69623;SDS011;56843;52.020;5.670;2023-07-22T01:03:24;8.27;;;3.22;;
69623;SDS011;56843;52.020;5.670;2023-07-22T01:04:55;6.95;;;2.40;;
69623;SDS011;56843;52.020;5.670;2023-07-22T01:06:26;9.03;;;3.00;;
69623;SDS011;56843;52.020;5.670;2023-07-22T01:07:59;7.70;;;2.80;;
69623;SDS011;56843;52.020;5.670;2023-07-22T01:09:35;7.27;;;2.50;;
69623;SDS011;56843;52.020;5.670;2023-07-22T01:11:09;6.65;;;2.60;;
69623;SDS011;56843;52.020;5.670;2023-07-22T01:12:40;7.17;;;2.67;;
69623;SDS011;56843;52.020;5.670;2023-07-22T01:14:10;7.75;;;2.70;;
69623;SDS011;56843;52.020;5.670;2023-07-22T01:15:41;6.72;;;2.67;;
69623;SDS011;56843;52.020;5.670;2023-07-22T01:17:11;6.80;;;2.60;;
69623;SDS011;56843;52.020;5.670;2023-07-22T01:18:43;6.85;;;2.80;;
69623;SDS011;56843;52.020;5.670;2023-07-22T01:20:13;7.60;;;2.65;;
69623;SDS011;56843;52.020;5.670;2023-07-22T01:21:45;6.85;;;2.60;;
69623;SDS011;56843;52.020;5.670;2023-07-22T01:23:17;7.82;;;2.55;;
69623;SDS011;56843;52.020;5.670;2023-07-22T01:24:48;6.60;;;2.63;;
69623;SDS011;56843;52.020;5.670;2023-07-22T01:26:19;6.63;;;2.53;;
69623;SDS011;56843;52.020;5.670;2023-07-22T01:27:52;7.82;;;2.70;;
69623;SDS011;56843;52.020;5.670;2023-07-22T01:29:23;7.63;;;2.55;;
69623;SDS011;56843;52.020;5.670;2023-07-22T01:30:54;8.38;;;2.97;;
69623;SDS011;56843;52.020;5.670;2023-07-22T01:32:24;7.93;;;2.63;;
69623;SDS011;56843;52.020;5.670;2023-07-22T01:33:55;8.13;;;2.90;;
69623;SDS011;56843;52.020;5.670;2023-07-22T01:35:25;7.25;;;2.50;;
69623;SDS011;56843;52.020;5.670;2023-07-22T01:36:56;8.30;;;3.00;;
69623;SDS011;56843;52.020;5.670;2023-07-22T01:38:26;7.63;;;2.83;;
69623;SDS011;56843;52.020;5.670;2023-07-22T01:39:57;6.33;;;2.50;;
69623;SDS011;56843;52.020;5.670;2023-07-22T01:41:27;7.80;;;3.00;;
69623;SDS011;56843;52.020;5.670;2023-07-22T01:42:58;6.60;;;2.80;;
69623;SDS011;56843;52.020;5.670;2023-07-22T01:44:28;7.40;;;3.10;;
69623;SDS011;56843;52.020;5.670;2023-07-22T01:45:59;8.68;;;3.08;;
69623;SDS011;56843;52.020;5.670;2023-07-22T01:47:29;8.80;;;2.83;;
69623;SDS011;56843;52.020;5.670;2023-07-22T01:49:00;8.83;;;3.03;;
69623;SDS011;56843;52.020;5.670;2023-07-22T01:50:32;6.83;;;2.80;;
69623;SDS011;56843;52.020;5.670;2023-07-22T01:52:02;9.90;;;3.30;;
69623;SDS011;56843;52.020;5.670;2023-07-22T01:53:33;8.53;;;2.63;;
69623;SDS011;56843;52.020;5.670;2023-07-22T01:55:03;9.87;;;2.73;;
69623;SDS011;56843;52.020;5.670;2023-07-22T01:56:36;7.55;;;2.80;;
69623;SDS011;56843;52.020;5.670;2023-07-22T01:58:07;6.97;;;2.78;;
69623;SDS011;56843;52.020;5.670;2023-07-22T01:59:37;8.80;;;3.00;;
69623;SDS011;56843;52.020;5.670;2023-07-22T02:01:08;8.63;;;2.97;;
69623;SDS011;56843;52.020;5.670;2023-07-22T02:02:38;8.73;;;2.70;;
69623;SDS011;56843;52.020;5.670;2023-07-22T02:04:09;8.17;;;2.80;;
69623;SDS011;56843;52.020;5.670;2023-07-22T02:05:41;12.55;;;3.10;;
69623;SDS011;56843;52.020;5.670;2023-07-22T02:07:11;8.80;;;2.85;;
69623;SDS011;56843;52.020;5.670;2023-07-22T02:08:42;8.68;;;2.97;;
69623;SDS011;56843;52.020;5.670;2023-07-22T02:10:12;7.80;;;3.07;;
69623;SDS011;56843;52.020;5.670;2023-07-22T02:11:43;8.43;;;2.77;;
69623;SDS011;56843;52.020;5.670;2023-07-22T02:13:13;7.50;;;3.00;;
69623;SDS011;56843;52.020;5.670;2023-07-22T02:14:44;9.03;;;3.00;;
69623;SDS011;56843;52.020;5.670;2023-07-22T02:16:14;6.97;;;2.75;;
69623;SDS011;56843;52.020;5.670;2023-07-22T02:17:46;8.95;;;2.78;;
69623;SDS011;56843;52.020;5.670;2023-07-22T02:19:18;8.13;;;3.47;;
69623;SDS011;56843;52.020;5.670;2023-07-22T02:20:48;8.77;;;3.10;;
69623;SDS011;56843;52.020;5.670;2023-07-22T02:22:19;8.53;;;2.80;;
69623;SDS011;56843;52.020;5.670;2023-07-22T02:23:49;8.52;;;2.75;;
69623;SDS011;56843;52.020;5.670;2023-07-22T02:25:20;8.23;;;3.00;;
69623;SDS011;56843;52.020;5.670;2023-07-22T02:26:50;8.97;;;3.27;;
69623;SDS011;56843;52.020;5.670;2023-07-22T02:28:21;8.93;;;2.93;;
69623;SDS011;56843;52.020;5.670;2023-07-22T02:29:53;8.43;;;3.03;;
69623;SDS011;56843;52.020;5.670;2023-07-22T02:31:24;7.93;;;3.23;;
69623;SDS011;56843;52.020;5.670;2023-07-22T02:32:55;6.88;;;2.75;;
69623;SDS011;56843;52.020;5.670;2023-07-22T02:34:26;10.65;;;3.33;;
69623;SDS011;56843;52.020;5.670;2023-07-22T02:35:56;18.02;;;3.25;;
69623;SDS011;56843;52.020;5.670;2023-07-22T02:37:27;8.73;;;3.40;;
69623;SDS011;56843;52.020;5.670;2023-07-22T02:38:57;9.40;;;3.53;;
69623;SDS011;56843;52.020;5.670;2023-07-22T02:40:28;10.43;;;3.37;;
69623;SDS011;56843;52.020;5.670;2023-07-22T02:41:58;9.80;;;3.20;;
69623;SDS011;56843;52.020;5.670;2023-07-22T02:43:28;7.07;;;2.97;;
69623;SDS011;56843;52.020;5.670;2023-07-22T02:44:59;10.30;;;3.30;;
69623;SDS011;56843;52.020;5.670;2023-07-22T02:46:29;10.98;;;3.65;;
69623;SDS011;56843;52.020;5.670;2023-07-22T02:48:01;8.02;;;3.22;;
69623;SDS011;56843;52.020;5.670;2023-07-22T02:49:31;8.77;;;3.80;;
69623;SDS011;56843;52.020;5.670;2023-07-22T02:51:05;10.13;;;3.55;;
69623;SDS011;56843;52.020;5.670;2023-07-22T02:52:37;9.68;;;3.08;;
69623;SDS011;56843;52.020;5.670;2023-07-22T02:54:08;8.80;;;3.10;;
69623;SDS011;56843;52.020;5.670;2023-07-22T02:55:38;10.35;;;4.03;;
69623;SDS011;56843;52.020;5.670;2023-07-22T02:57:08;8.57;;;3.57;;
69623;SDS011;56843;52.020;5.670;2023-07-22T02:58:39;8.43;;;3.70;;
69623;SDS011;56843;52.020;5.670;2023-07-22T03:00:12;8.00;;;3.40;;
69623;SDS011;56843;52.020;5.670;2023-07-22T03:01:47;8.68;;;3.33;;
69623;SDS011;56843;52.020;5.670;2023-07-22T03:03:18;10.40;;;3.23;;
69623;SDS011;56843;52.020;5.670;2023-07-22T03:04:49;9.82;;;3.28;;
69623;SDS011;56843;52.020;5.670;2023-07-22T03:06:20;10.95;;;3.38;;
69623;SDS011;56843;52.020;5.670;2023-07-22T03:07:50;11.25;;;3.50;;
69623;SDS011;56843;52.020;5.670;2023-07-22T03:09:23;8.90;;;3.53;;
69623;SDS011;56843;52.020;5.670;2023-07-22T03:10:53;10.03;;;4.23;;
69623;SDS011;56843;52.020;5.670;2023-07-22T03:12:24;11.70;;;3.90;;
69623;SDS011;56843;52.020;5.670;2023-07-22T03:13:54;8.32;;;3.45;;
69623;SDS011;56843;52.020;5.670;2023-07-22T03:15:25;9.60;;;3.83;;
69623;SDS011;56843;52.020;5.670;2023-07-22T03:16:56;15.93;;;4.75;;
69623;SDS011;56843;52.020;5.670;2023-07-22T03:18:27;17.00;;;4.85;;
69623;SDS011;56843;52.020;5.670;2023-07-22T03:19:57;11.30;;;4.40;;
69623;SDS011;56843;52.020;5.670;2023-07-22T03:21:27;15.40;;;4.97;;
69623;SDS011;56843;52.020;5.670;2023-07-22T03:22:59;18.42;;;4.10;;
69623;SDS011;56843;52.020;5.670;2023-07-22T03:24:29;8.48;;;3.33;;
69623;SDS011;56843;52.020;5.670;2023-07-22T03:26:00;11.97;;;5.37;;
69623;SDS011;56843;52.020;5.670;2023-07-22T03:27:31;13.20;;;5.37;;
69623;SDS011;56843;52.020;5.670;2023-07-22T03:29:01;9.87;;;3.87;;
69623;SDS011;56843;52.020;5.670;2023-07-22T03:30:32;9.63;;;3.17;;
69623;SDS011;56843;52.020;5.670;2023-07-22T03:32:03;14.20;;;4.63;;
69623;SDS011;56843;52.020;5.670;2023-07-22T03:33:34;8.80;;;3.70;;
69623;SDS011;56843;52.020;5.670;2023-07-22T03:35:05;11.70;;;4.47;;
69623;SDS011;56843;52.020;5.670;2023-07-22T03:36:38;31.20;;;13.32;;
69623;SDS011;56843;52.020;5.670;2023-07-22T03:38:09;11.70;;;4.30;;
69623;SDS011;56843;52.020;5.670;2023-07-22T03:39:39;13.43;;;3.97;;
69623;SDS011;56843;52.020;5.670;2023-07-22T03:41:09;18.30;;;5.10;;
69623;SDS011;56843;52.020;5.670;2023-07-22T03:42:40;19.03;;;5.30;;
69623;SDS011;56843;52.020;5.670;2023-07-22T03:44:10;19.27;;;4.97;;
69623;SDS011;56843;52.020;5.670;2023-07-22T03:45:41;22.33;;;5.80;;
69623;SDS011;56843;52.020;5.670;2023-07-22T03:47:13;25.15;;;6.95;;
69623;SDS011;56843;52.020;5.670;2023-07-22T03:48:43;11.77;;;4.30;;
69623;SDS011;56843;52.020;5.670;2023-07-22T03:50:14;25.70;;;11.15;;
69623;SDS011;56843;52.020;5.670;2023-07-22T03:51:44;10.13;;;3.53;;
69623;SDS011;56843;52.020;5.670;2023-07-22T03:53:15;9.13;;;3.83;;
69623;SDS011;56843;52.020;5.670;2023-07-22T03:54:45;9.30;;;3.80;;
69623;SDS011;56843;52.020;5.670;2023-07-22T03:56:16;10.17;;;4.10;;
69623;SDS011;56843;52.020;5.670;2023-07-22T03:57:46;10.23;;;3.70;;
69623;SDS011;56843;52.020;5.670;2023-07-22T03:59:16;10.45;;;4.07;;
69623;SDS011;56843;52.020;5.670;2023-07-22T04:00:48;10.37;;;4.20;;
69623;SDS011;56843;52.020;5.670;2023-07-22T04:02:19;11.20;;;4.07;;
69623;SDS011;56843;52.020;5.670;2023-07-22T04:03:49;11.87;;;3.93;;
69623;SDS011;56843;52.020;5.670;2023-07-22T04:05:20;8.73;;;3.70;;
69623;SDS011;56843;52.020;5.670;2023-07-22T04:06:50;9.93;;;3.90;;
69623;SDS011;56843;52.020;5.670;2023-07-22T04:08:21;10.35;;;4.28;;
69623;SDS011;56843;52.020;5.670;2023-07-22T04:09:52;15.07;;;4.55;;
69623;SDS011;56843;52.020;5.670;2023-07-22T04:11:22;11.37;;;4.17;;
69623;SDS011;56843;52.020;5.670;2023-07-22T04:12:53;10.23;;;3.93;;
69623;SDS011;56843;52.020;5.670;2023-07-22T04:14:23;10.25;;;3.90;;
69623;SDS011;56843;52.020;5.670;2023-07-22T04:15:55;8.98;;;3.63;;
69623;SDS011;56843;52.020;5.670;2023-07-22T04:17:25;9.97;;;3.67;;
69623;SDS011;56843;52.020;5.670;2023-07-22T04:18:55;10.90;;;4.13;;
69623;SDS011;56843;52.020;5.670;2023-07-22T04:20:26;10.27;;;3.72;;
69623;SDS011;56843;52.020;5.670;2023-07-22T04:21:57;9.82;;;3.95;;
69623;SDS011;56843;52.020;5.670;2023-07-22T04:23:27;10.30;;;4.55;;
69623;SDS011;56843;52.020;5.670;2023-07-22T04:24:58;12.00;;;4.40;;
69623;SDS011;56843;52.020;5.670;2023-07-22T04:26:28;11.13;;;4.20;;
69623;SDS011;56843;52.020;5.670;2023-07-22T04:27:59;10.82;;;4.15;;
69623;SDS011;56843;52.020;5.670;2023-07-22T04:29:30;11.50;;;3.63;;
69623;SDS011;56843;52.020;5.670;2023-07-22T04:31:01;9.95;;;4.05;;
69623;SDS011;56843;52.020;5.670;2023-07-22T04:32:34;10.93;;;4.05;;
69623;SDS011;56843;52.020;5.670;2023-07-22T04:34:04;11.90;;;4.30;;
69623;SDS011;56843;52.020;5.670;2023-07-22T04:35:38;10.40;;;4.28;;
69623;SDS011;56843;52.020;5.670;2023-07-22T04:37:11;13.00;;;4.53;;
69623;SDS011;56843;52.020;5.670;2023-07-22T04:38:42;9.70;;;4.10;;
69623;SDS011;56843;52.020;5.670;2023-07-22T04:40:13;10.17;;;4.53;;
69623;SDS011;56843;52.020;5.670;2023-07-22T04:41:48;12.32;;;4.75;;
69623;SDS011;56843;52.020;5.670;2023-07-22T04:43:18;12.35;;;4.22;;
69623;SDS011;56843;52.020;5.670;2023-07-22T04:44:49;9.20;;;4.10;;
69623;SDS011;56843;52.020;5.670;2023-07-22T04:46:19;11.00;;;4.83;;
69623;SDS011;56843;52.020;5.670;2023-07-22T04:47:51;11.10;;;4.00;;
69623;SDS011;56843;52.020;5.670;2023-07-22T04:49:21;11.95;;;4.38;;
69623;SDS011;56843;52.020;5.670;2023-07-22T04:50:52;10.80;;;4.32;;
69623;SDS011;56843;52.020;5.670;2023-07-22T04:52:23;11.68;;;4.50;;
69623;SDS011;56843;52.020;5.670;2023-07-22T04:53:53;11.03;;;4.43;;
69623;SDS011;56843;52.020;5.670;2023-07-22T04:55:23;11.00;;;4.23;;
69623;SDS011;56843;52.020;5.670;2023-07-22T04:56:54;14.50;;;4.22;;
69623;SDS011;56843;52.020;5.670;2023-07-22T04:58:24;16.53;;;4.57;;
69623;SDS011;56843;52.020;5.670;2023-07-22T04:59:55;13.70;;;4.27;;
69623;SDS011;56843;52.020;5.670;2023-07-22T05:01:25;14.43;;;4.53;;
69623;SDS011;56843;52.020;5.670;2023-07-22T05:02:56;13.18;;;5.00;;
69623;SDS011;56843;52.020;5.670;2023-07-22T05:04:26;11.33;;;4.63;;
69623;SDS011;56843;52.020;5.670;2023-07-22T05:05:57;15.37;;;5.67;;
69623;SDS011;56843;52.020;5.670;2023-07-22T05:07:28;14.83;;;4.67;;
69623;SDS011;56843;52.020;5.670;2023-07-22T05:08:59;11.23;;;4.88;;
69623;SDS011;56843;52.020;5.670;2023-07-22T05:10:29;15.40;;;5.20;;
69623;SDS011;56843;52.020;5.670;2023-07-22T05:12:00;12.60;;;4.67;;
69623;SDS011;56843;52.020;5.670;2023-07-22T05:13:30;10.57;;;3.87;;
69623;SDS011;56843;52.020;5.670;2023-07-22T05:15:01;10.13;;;3.97;;
69623;SDS011;56843;52.020;5.670;2023-07-22T05:16:31;11.83;;;4.60;;
69623;SDS011;56843;52.020;5.670;2023-07-22T05:18:01;13.40;;;4.97;;
69623;SDS011;56843;52.020;5.670;2023-07-22T05:19:32;16.73;;;5.57;;
69623;SDS011;56843;52.020;5.670;2023-07-22T05:21:02;15.93;;;5.10;;
69623;SDS011;56843;52.020;5.670;2023-07-22T05:22:33;13.23;;;4.60;;
69623;SDS011;56843;52.020;5.670;2023-07-22T05:24:03;14.82;;;5.00;;
69623;SDS011;56843;52.020;5.670;2023-07-22T05:25:34;13.88;;;4.65;;
69623;SDS011;56843;52.020;5.670;2023-07-22T05:27:04;12.83;;;4.60;;
69623;SDS011;56843;52.020;5.670;2023-07-22T05:28:35;13.20;;;4.60;;
69623;SDS011;56843;52.020;5.670;2023-07-22T05:30:05;14.73;;;4.40;;
69623;SDS011;56843;52.020;5.670;2023-07-22T05:31:37;11.33;;;4.90;;
69623;SDS011;56843;52.020;5.670;2023-07-22T05:33:07;15.63;;;5.43;;
69623;SDS011;56843;52.020;5.670;2023-07-22T05:34:38;11.93;;;4.70;;
69623;SDS011;56843;52.020;5.670;2023-07-22T05:36:08;13.77;;;5.13;;
69623;SDS011;56843;52.020;5.670;2023-07-22T05:37:39;18.13;;;5.78;;
69623;SDS011;56843;52.020;5.670;2023-07-22T05:39:09;15.73;;;5.03;;
69623;SDS011;56843;52.020;5.670;2023-07-22T05:40:40;14.47;;;4.80;;
69623;SDS011;56843;52.020;5.670;2023-07-22T05:42:10;12.10;;;4.90;;
69623;SDS011;56843;52.020;5.670;2023-07-22T05:43:41;12.98;;;4.47;;
69623;SDS011;56843;52.020;5.670;2023-07-22T05:45:14;13.07;;;5.18;;
69623;SDS011;56843;52.020;5.670;2023-07-22T05:46:46;12.55;;;4.57;;
69623;SDS011;56843;52.020;5.670;2023-07-22T05:48:16;12.53;;;4.67;;
69623;SDS011;56843;52.020;5.670;2023-07-22T05:49:47;13.32;;;4.65;;
69623;SDS011;56843;52.020;5.670;2023-07-22T05:51:19;14.47;;;4.37;;
69623;SDS011;56843;52.020;5.670;2023-07-22T05:52:50;9.47;;;3.93;;
69623;SDS011;56843;52.020;5.670;2023-07-22T05:54:20;13.83;;;5.07;;
69623;SDS011;56843;52.020;5.670;2023-07-22T05:55:57;11.70;;;4.53;;
69623;SDS011;56843;52.020;5.670;2023-07-22T05:57:27;15.40;;;5.53;;
69623;SDS011;56843;52.020;5.670;2023-07-22T05:58:58;13.77;;;4.30;;
69623;SDS011;56843;52.020;5.670;2023-07-22T06:00:28;13.47;;;4.77;;
69623;SDS011;56843;52.020;5.670;2023-07-22T06:01:59;12.90;;;4.20;;
69623;SDS011;56843;52.020;5.670;2023-07-22T06:03:30;13.35;;;5.13;;
69623;SDS011;56843;52.020;5.670;2023-07-22T06:05:00;13.90;;;4.95;;
69623;SDS011;56843;52.020;5.670;2023-07-22T06:06:31;15.02;;;4.70;;
69623;SDS011;56843;52.020;5.670;2023-07-22T06:08:02;14.82;;;4.95;;
69623;SDS011;56843;52.020;5.670;2023-07-22T06:09:33;15.07;;;4.68;;
69623;SDS011;56843;52.020;5.670;2023-07-22T06:11:03;11.53;;;4.57;;
69623;SDS011;56843;52.020;5.670;2023-07-22T06:12:34;13.48;;;4.75;;
69623;SDS011;56843;52.020;5.670;2023-07-22T06:14:05;15.10;;;5.10;;
69623;SDS011;56843;52.020;5.670;2023-07-22T06:15:36;15.05;;;5.13;;
69623;SDS011;56843;52.020;5.670;2023-07-22T06:17:07;14.18;;;4.95;;
69623;SDS011;56843;52.020;5.670;2023-07-22T06:18:37;14.30;;;5.07;;
69623;SDS011;56843;52.020;5.670;2023-07-22T06:20:08;11.87;;;4.47;;
69623;SDS011;56843;52.020;5.670;2023-07-22T06:21:39;13.15;;;5.22;;
69623;SDS011;56843;52.020;5.670;2023-07-22T06:23:09;13.37;;;4.83;;
69623;SDS011;56843;52.020;5.670;2023-07-22T06:24:40;10.90;;;4.53;;
69623;SDS011;56843;52.020;5.670;2023-07-22T06:26:10;16.93;;;5.03;;
69623;SDS011;56843;52.020;5.670;2023-07-22T06:27:40;11.03;;;4.53;;
69623;SDS011;56843;52.020;5.670;2023-07-22T06:29:11;12.90;;;5.03;;
69623;SDS011;56843;52.020;5.670;2023-07-22T06:30:41;13.40;;;5.30;;
69623;SDS011;56843;52.020;5.670;2023-07-22T06:32:12;13.87;;;4.93;;
69623;SDS011;56843;52.020;5.670;2023-07-22T06:33:42;13.25;;;5.20;;
69623;SDS011;56843;52.020;5.670;2023-07-22T06:35:13;13.00;;;5.00;;
69623;SDS011;56843;52.020;5.670;2023-07-22T06:36:43;11.83;;;5.20;;
69623;SDS011;56843;52.020;5.670;2023-07-22T06:38:14;12.93;;;4.93;;
69623;SDS011;56843;52.020;5.670;2023-07-22T06:39:44;12.32;;;4.43;;
69623;SDS011;56843;52.020;5.670;2023-07-22T06:41:15;12.83;;;5.13;;
69623;SDS011;56843;52.020;5.670;2023-07-22T06:42:45;10.67;;;4.77;;
69623;SDS011;56843;52.020;5.670;2023-07-22T06:44:15;14.35;;;4.88;;
69623;SDS011;56843;52.020;5.670;2023-07-22T06:45:46;15.07;;;5.33;;
69623;SDS011;56843;52.020;5.670;2023-07-22T06:47:16;13.13;;;3.40;;
69623;SDS011;56843;52.020;5.670;2023-07-22T06:48:47;9.00;;;3.20;;
69623;SDS011;56843;52.020;5.670;2023-07-22T06:50:17;16.33;;;2.10;;
69623;SDS011;56843;52.020;5.670;2023-07-22T06:51:48;12.23;;;2.47;;
69623;SDS011;56843;52.020;5.670;2023-07-22T06:53:18;10.37;;;2.63;;
69623;SDS011;56843;52.020;5.670;2023-07-22T06:54:49;8.43;;;2.10;;
69623;SDS011;56843;52.020;5.670;2023-07-22T06:56:19;19.93;;;2.00;;
69623;SDS011;56843;52.020;5.670;2023-07-22T06:57:50;8.87;;;1.77;;
69623;SDS011;56843;52.020;5.670;2023-07-22T06:59:20;8.63;;;1.55;;
69623;SDS011;56843;52.020;5.670;2023-07-22T07:00:53;5.70;;;1.17;;
69623;SDS011;56843;52.020;5.670;2023-07-22T07:02:25;8.98;;;2.92;;
69623;SDS011;56843;52.020;5.670;2023-07-22T07:03:56;9.43;;;2.30;;
69623;SDS011;56843;52.020;5.670;2023-07-22T07:05:26;8.37;;;2.00;;
69623;SDS011;56843;52.020;5.670;2023-07-22T07:06:57;7.23;;;2.07;;
69623;SDS011;56843;52.020;5.670;2023-07-22T07:08:27;11.20;;;1.70;;
69623;SDS011;56843;52.020;5.670;2023-07-22T07:09:58;7.25;;;2.08;;
69623;SDS011;56843;52.020;5.670;2023-07-22T07:11:29;10.87;;;2.23;;
69623;SDS011;56843;52.020;5.670;2023-07-22T07:13:00;8.85;;;2.00;;
69623;SDS011;56843;52.020;5.670;2023-07-22T07:14:32;7.25;;;1.95;;
69623;SDS011;56843;52.020;5.670;2023-07-22T07:17:54;5.82;;;2.17;;
69623;SDS011;56843;52.020;5.670;2023-07-22T07:19:25;6.60;;;2.70;;
69623;SDS011;56843;52.020;5.670;2023-07-22T07:20:56;6.03;;;1.80;;
69623;SDS011;56843;52.020;5.670;2023-07-22T07:22:27;8.93;;;2.57;;
69623;SDS011;56843;52.020;5.670;2023-07-22T07:23:57;7.43;;;2.33;;
69623;SDS011;56843;52.020;5.670;2023-07-22T07:25:28;8.27;;;2.35;;
69623;SDS011;56843;52.020;5.670;2023-07-22T07:26:58;6.07;;;2.30;;
69623;SDS011;56843;52.020;5.670;2023-07-22T07:28:29;5.37;;;1.93;;
69623;SDS011;56843;52.020;5.670;2023-07-22T07:29:59;7.95;;;2.15;;
69623;SDS011;56843;52.020;5.670;2023-07-22T07:31:30;7.68;;;2.25;;
69623;SDS011;56843;52.020;5.670;2023-07-22T07:33:00;8.87;;;2.40;;
69623;SDS011;56843;52.020;5.670;2023-07-22T07:34:30;5.40;;;2.00;;
69623;SDS011;56843;52.020;5.670;2023-07-22T07:36:01;7.30;;;2.47;;
69623;SDS011;56843;52.020;5.670;2023-07-22T07:37:33;8.43;;;2.00;;
69623;SDS011;56843;52.020;5.670;2023-07-22T07:39:03;6.87;;;2.00;;
69623;SDS011;56843;52.020;5.670;2023-07-22T07:40:34;7.07;;;1.83;;
69623;SDS011;56843;52.020;5.670;2023-07-22T07:42:04;4.30;;;1.60;;
69623;SDS011;56843;52.020;5.670;2023-07-22T07:43:35;6.47;;;1.80;;
69623;SDS011;56843;52.020;5.670;2023-07-22T07:45:06;8.50;;;1.85;;
69623;SDS011;56843;52.020;5.670;2023-07-22T07:46:37;6.07;;;1.63;;
69623;SDS011;56843;52.020;5.670;2023-07-22T07:48:08;5.50;;;1.60;;
69623;SDS011;56843;52.020;5.670;2023-07-22T07:49:38;5.80;;;1.30;;
69623;SDS011;56843;52.020;5.670;2023-07-22T07:51:09;9.05;;;1.80;;
69623;SDS011;56843;52.020;5.670;2023-07-22T07:52:39;6.25;;;1.92;;
69623;SDS011;56843;52.020;5.670;2023-07-22T07:54:10;6.23;;;1.80;;
69623;SDS011;56843;52.020;5.670;2023-07-22T07:55:40;5.00;;;1.70;;
69623;SDS011;56843;52.020;5.670;2023-07-22T07:57:11;7.80;;;1.70;;
69623;SDS011;56843;52.020;5.670;2023-07-22T07:58:41;5.50;;;1.70;;
69623;SDS011;56843;52.020;5.670;2023-07-22T08:00:12;5.40;;;1.53;;
69623;SDS011;56843;52.020;5.670;2023-07-22T08:01:42;4.97;;;1.80;;
69623;SDS011;56843;52.020;5.670;2023-07-22T08:03:13;6.30;;;1.53;;
69623;SDS011;56843;52.020;5.670;2023-07-22T08:04:43;5.43;;;1.70;;
69623;SDS011;56843;52.020;5.670;2023-07-22T08:06:13;7.50;;;1.80;;
69623;SDS011;56843;52.020;5.670;2023-07-22T08:07:44;5.77;;;1.80;;
69623;SDS011;56843;52.020;5.670;2023-07-22T08:09:15;5.47;;;1.50;;
69623;SDS011;56843;52.020;5.670;2023-07-22T08:11:02;5.10;;;1.60;;
69623;SDS011;56843;52.020;5.670;2023-07-22T08:12:45;5.47;;;1.60;;
69623;SDS011;56843;52.020;5.670;2023-07-22T08:14:15;4.37;;;1.47;;
69623;SDS011;56843;52.020;5.670;2023-07-22T08:15:47;4.68;;;1.65;;
69623;SDS011;56843;52.020;5.670;2023-07-22T08:17:17;4.93;;;1.67;;
69623;SDS011;56843;52.020;5.670;2023-07-22T08:18:48;4.20;;;1.40;;
69623;SDS011;56843;52.020;5.670;2023-07-22T08:20:18;4.50;;;1.50;;
69623;SDS011;56843;52.020;5.670;2023-07-22T08:21:49;4.97;;;1.55;;
69623;SDS011;56843;52.020;5.670;2023-07-22T08:23:19;4.28;;;1.52;;
69623;SDS011;56843;52.020;5.670;2023-07-22T08:24:50;3.72;;;1.38;;
69623;SDS011;56843;52.020;5.670;2023-07-22T08:26:21;5.30;;;1.55;;
69623;SDS011;56843;52.020;5.670;2023-07-22T08:27:51;4.50;;;1.60;;
69623;SDS011;56843;52.020;5.670;2023-07-22T08:29:22;4.17;;;1.50;;
69623;SDS011;56843;52.020;5.670;2023-07-22T08:30:55;3.70;;;1.30;;
69623;SDS011;56843;52.020;5.670;2023-07-22T08:32:26;4.60;;;1.50;;
69623;SDS011;56843;52.020;5.670;2023-07-22T08:33:57;3.23;;;1.10;;
69623;SDS011;56843;52.020;5.670;2023-07-22T08:35:27;5.53;;;1.50;;
69623;SDS011;56843;52.020;5.670;2023-07-22T08:36:57;3.70;;;1.30;;
69623;SDS011;56843;52.020;5.670;2023-07-22T08:38:28;3.95;;;1.25;;
69623;SDS011;56843;52.020;5.670;2023-07-22T08:39:58;3.20;;;1.00;;
69623;SDS011;56843;52.020;5.670;2023-07-22T08:41:29;5.33;;;1.50;;
69623;SDS011;56843;52.020;5.670;2023-07-22T08:43:00;6.03;;;1.27;;
69623;SDS011;56843;52.020;5.670;2023-07-22T08:44:33;4.43;;;1.25;;
69623;SDS011;56843;52.020;5.670;2023-07-22T08:46:07;3.97;;;1.30;;
69623;SDS011;56843;52.020;5.670;2023-07-22T08:47:45;3.08;;;1.10;;
69623;SDS011;56843;52.020;5.670;2023-07-22T08:49:17;5.10;;;1.40;;
69623;SDS011;56843;52.020;5.670;2023-07-22T08:50:49;3.58;;;1.20;;
69623;SDS011;56843;52.020;5.670;2023-07-22T08:52:20;3.27;;;1.20;;
69623;SDS011;56843;52.020;5.670;2023-07-22T08:53:52;3.85;;;1.00;;
69623;SDS011;56843;52.020;5.670;2023-07-22T08:55:23;3.23;;;1.10;;
69623;SDS011;56843;52.020;5.670;2023-07-22T08:56:54;3.78;;;1.10;;
69623;SDS011;56843;52.020;5.670;2023-07-22T08:58:25;4.28;;;1.40;;
69623;SDS011;56843;52.020;5.670;2023-07-22T08:59:56;3.45;;;1.20;;
69623;SDS011;56843;52.020;5.670;2023-07-22T09:01:27;3.93;;;1.30;;
69623;SDS011;56843;52.020;5.670;2023-07-22T09:02:58;3.70;;;1.27;;
69623;SDS011;56843;52.020;5.670;2023-07-22T09:04:29;3.10;;;1.02;;
69623;SDS011;56843;52.020;5.670;2023-07-22T09:06:00;4.30;;;1.27;;
69623;SDS011;56843;52.020;5.670;2023-07-22T09:07:31;4.13;;;1.23;;
69623;SDS011;56843;52.020;5.670;2023-07-22T09:09:02;3.90;;;1.20;;